createdAt,value
2018-06-14T00:00:52.416Z,6.12
2018-06-14T00:03:21.328Z,7.30
2018-06-14T00:05:50.503Z,8.60
2018-06-14T00:08:19.721Z,5.03
2018-06-14T00:10:48.974Z,5.37
2018-06-14T00:13:18.271Z,9.50
2018-06-14T00:15:47.431Z,6.60
2018-06-14T00:18:16.995Z,5.60
2018-06-14T00:20:46.637Z,4.83
2018-06-14T00:23:15.861Z,5.07
2018-06-14T00:25:44.904Z,4.83
2018-06-14T00:28:14.139Z,8.37
2018-06-14T00:30:43.467Z,6.73
2018-06-14T00:33:12.659Z,6.17
2018-06-14T00:35:41.993Z,5.43
2018-06-14T00:38:11.096Z,5.23
2018-06-14T00:40:40.122Z,5.37
2018-06-14T00:43:09.243Z,6.00
2018-06-14T00:45:38.414Z,5.73
2018-06-14T00:48:07.597Z,5.53
2018-06-14T00:50:36.686Z,7.72
2018-06-14T00:53:05.834Z,8.67
2018-06-14T00:55:34.828Z,6.03
2018-06-14T00:58:04.230Z,6.60
2018-06-14T01:00:33.277Z,6.57
2018-06-14T01:03:02.431Z,5.33
2018-06-14T01:05:31.589Z,5.67
2018-06-14T01:08:00.617Z,8.77
2018-06-14T01:10:29.777Z,6.07
2018-06-14T01:12:59.002Z,7.83
2018-06-14T01:15:27.986Z,5.63
2018-06-14T01:17:57.092Z,10.27
2018-06-14T01:20:26.385Z,6.00
2018-06-14T01:23:58.401Z,6.67
2018-06-14T01:26:27.464Z,5.57
2018-06-14T01:28:56.600Z,8.13
2018-06-14T01:31:25.722Z,6.37
2018-06-14T01:33:55.166Z,7.30
2018-06-14T01:36:24.411Z,8.23
2018-06-14T01:38:53.578Z,8.00
2018-06-14T01:41:22.901Z,5.80
2018-06-14T01:43:53.088Z,6.70
2018-06-14T01:46:22.399Z,10.60
2018-06-14T01:48:51.528Z,8.90
2018-06-14T01:51:20.719Z,10.57
2018-06-14T01:53:49.800Z,8.10
2018-06-14T01:56:19.121Z,8.40
2018-06-14T01:58:48.383Z,11.00
2018-06-14T02:01:17.451Z,10.00
2018-06-14T02:03:46.989Z,12.57
2018-06-14T02:06:16.182Z,10.47
2018-06-14T02:08:45.596Z,13.17
2018-06-14T02:11:15.221Z,10.57
2018-06-14T02:13:44.287Z,15.37
2018-06-14T02:16:13.413Z,13.00
2018-06-14T02:18:42.890Z,11.43
2018-06-14T02:21:12.078Z,10.37
2018-06-14T02:23:41.008Z,9.20
2018-06-14T02:26:10.696Z,9.47
2018-06-14T02:28:40.131Z,11.20
2018-06-14T02:31:09.317Z,11.27
2018-06-14T02:33:38.594Z,11.03
2018-06-14T02:36:07.884Z,11.60
2018-06-14T02:38:37.175Z,8.73
2018-06-14T02:41:06.496Z,12.23
2018-06-14T02:43:35.642Z,14.43
2018-06-14T02:46:04.900Z,14.20
2018-06-14T02:48:34.253Z,13.47
2018-06-14T02:51:03.411Z,11.03
2018-06-14T02:53:32.699Z,10.27
2018-06-14T02:56:01.883Z,11.43
2018-06-14T02:58:31.080Z,12.67
2018-06-14T03:01:00.170Z,11.27
2018-06-14T03:03:29.282Z,10.70
2018-06-14T03:05:58.329Z,9.63
2018-06-14T03:08:27.637Z,10.03
2018-06-14T03:10:57.262Z,8.37
2018-06-14T03:13:26.362Z,8.97
2018-06-14T03:15:55.597Z,8.20
2018-06-14T03:18:24.660Z,8.30
2018-06-14T03:20:53.644Z,8.83
2018-06-14T03:23:22.809Z,5.43
2018-06-14T03:25:52.046Z,5.67
2018-06-14T03:28:21.151Z,9.93
2018-06-14T03:30:50.547Z,8.00
2018-06-14T03:33:20.027Z,9.23
2018-06-14T03:35:49.277Z,8.13
2018-06-14T03:38:18.394Z,8.60
2018-06-14T03:40:47.702Z,13.30
2018-06-14T03:43:16.968Z,10.30
2018-06-14T03:45:46.264Z,12.50
2018-06-14T03:48:15.614Z,9.83
2018-06-14T03:50:44.765Z,8.93
2018-06-14T03:53:13.756Z,9.27
2018-06-14T03:55:43.260Z,12.00
2018-06-14T03:58:14.852Z,13.33
2018-06-14T04:00:44.226Z,11.90
2018-06-14T04:03:13.361Z,9.93
2018-06-14T04:05:42.428Z,11.90
2018-06-14T04:08:11.974Z,12.20
2018-06-14T04:10:41.216Z,13.83
2018-06-14T04:13:10.429Z,8.90
2018-06-14T04:15:39.708Z,10.73
2018-06-14T04:18:08.967Z,8.53
2018-06-14T04:20:38.211Z,9.87
2018-06-14T04:23:07.855Z,11.87
2018-06-14T04:25:36.989Z,13.33
2018-06-14T04:28:06.628Z,9.60
2018-06-14T04:30:36.471Z,13.30
2018-06-14T04:33:05.748Z,11.70
2018-06-14T04:35:34.971Z,11.63
2018-06-14T04:38:04.830Z,13.50
2018-06-14T04:40:33.973Z,8.23
2018-06-14T04:43:03.400Z,11.90
2018-06-14T04:45:32.924Z,14.63
2018-06-14T04:48:02.078Z,11.43
2018-06-14T04:50:31.267Z,10.57
2018-06-14T04:53:02.282Z,13.97
2018-06-14T04:55:32.624Z,9.50
2018-06-14T04:58:02.414Z,8.87
2018-06-14T05:00:31.556Z,9.63
2018-06-14T05:03:00.716Z,10.17
2018-06-14T05:05:30.085Z,12.47
2018-06-14T05:07:59.149Z,18.87
2018-06-14T05:10:28.290Z,13.70
2018-06-14T05:12:57.578Z,21.90
2018-06-14T05:15:26.745Z,12.90
2018-06-14T05:17:55.939Z,15.65
2018-06-14T05:20:25.514Z,10.25
2018-06-14T05:22:54.722Z,15.08
2018-06-14T05:25:23.828Z,11.22
2018-06-14T05:27:52.723Z,13.50
2018-06-14T05:30:21.768Z,16.62
2018-06-14T05:32:50.668Z,16.95
2018-06-14T05:35:19.621Z,22.70
2018-06-14T05:37:48.886Z,22.98
2018-06-14T05:40:18.207Z,17.05
2018-06-14T05:42:47.656Z,19.85
2018-06-14T05:45:16.627Z,16.30
2018-06-14T05:47:45.744Z,11.12
2018-06-14T05:50:14.727Z,15.28
2018-06-14T05:52:43.966Z,17.95
2018-06-14T05:55:13.142Z,13.95
2018-06-14T05:57:42.618Z,14.65
2018-06-14T06:00:16.647Z,13.20
2018-06-14T06:02:47.968Z,10.78
2018-06-14T06:05:17.973Z,12.28
2018-06-14T06:07:47.027Z,10.68
2018-06-14T06:10:16.469Z,10.58
2018-06-14T06:12:45.550Z,10.38
2018-06-14T06:15:14.586Z,8.78
2018-06-14T06:17:43.983Z,12.37
2018-06-14T06:20:16.031Z,15.55
2018-06-14T06:22:45.306Z,10.20
2018-06-14T06:25:14.363Z,9.70
2018-06-14T06:27:43.282Z,9.70
2018-06-14T06:30:12.584Z,8.78
2018-06-14T06:32:41.574Z,10.35
2018-06-14T06:35:10.396Z,11.63
2018-06-14T06:37:39.452Z,10.63
2018-06-14T06:40:08.378Z,17.25
2018-06-14T06:42:37.365Z,13.15
2018-06-14T06:45:09.197Z,10.10
2018-06-14T06:47:38.213Z,13.25
2018-06-14T06:50:07.254Z,15.50
2018-06-14T06:52:36.326Z,14.75
2018-06-14T06:55:05.431Z,8.43
2018-06-14T06:57:34.430Z,12.88
2018-06-14T07:00:04.060Z,10.95
2018-06-14T07:02:33.053Z,11.43
2018-06-14T07:05:02.061Z,10.18
2018-06-14T07:07:31.580Z,11.08
2018-06-14T07:10:00.568Z,12.45
2018-06-14T07:12:29.579Z,7.03
2018-06-14T07:14:59.052Z,9.25
2018-06-14T07:17:28.113Z,11.43
2018-06-14T07:19:57.160Z,8.80
2018-06-14T07:22:26.519Z,8.60
2018-06-14T07:24:55.537Z,9.43
2018-06-14T07:27:24.561Z,8.25
2018-06-14T07:29:53.568Z,11.73
2018-06-14T07:32:23.239Z,10.82
2018-06-14T07:34:52.275Z,8.88
2018-06-14T07:37:21.914Z,10.00
2018-06-14T07:39:50.823Z,11.68
2018-06-14T07:42:20.320Z,8.73
2018-06-14T07:44:49.461Z,6.92
2018-06-14T07:47:18.310Z,8.30
2018-06-14T07:49:47.324Z,7.78
2018-06-14T07:52:16.681Z,10.78
2018-06-14T07:54:45.563Z,6.35
2018-06-14T07:57:14.492Z,9.00
2018-06-14T07:59:43.606Z,6.12
2018-06-14T08:02:12.495Z,9.68
2018-06-14T08:04:41.450Z,5.17
2018-06-14T08:07:10.784Z,6.10
2018-06-14T08:09:39.771Z,8.33
2018-06-14T08:12:08.704Z,9.03
2018-06-14T08:14:37.741Z,7.83
2018-06-14T08:17:06.806Z,11.22
2018-06-14T08:19:35.649Z,8.15
2018-06-14T08:22:04.663Z,9.45
2018-06-14T08:24:33.577Z,8.10
2018-06-14T08:27:02.416Z,7.55
2018-06-14T08:29:31.431Z,7.87
2018-06-14T08:32:00.417Z,10.53
2018-06-14T08:34:29.366Z,10.68
2018-06-14T08:36:58.444Z,6.72
2018-06-14T08:39:27.467Z,6.45
2018-06-14T08:41:56.388Z,9.50
2018-06-14T08:44:25.784Z,9.70
2018-06-14T08:46:54.766Z,5.67
2018-06-14T08:49:23.965Z,12.00
2018-06-14T08:51:52.975Z,5.60
2018-06-14T08:54:22.160Z,5.62
2018-06-14T08:56:51.251Z,8.38
2018-06-14T08:59:20.920Z,4.97
2018-06-14T09:01:49.881Z,8.13
2018-06-14T09:04:18.876Z,8.43
2018-06-14T09:06:50.264Z,5.95
2018-06-14T09:09:19.194Z,9.28
2018-06-14T09:11:48.102Z,6.12
2018-06-14T09:14:17.293Z,5.75
2018-06-14T09:16:46.192Z,4.95
2018-06-14T09:19:16.751Z,8.95
2018-06-14T09:21:45.804Z,4.60
2018-06-14T09:24:14.787Z,7.58
2018-06-14T09:26:43.823Z,5.75
2018-06-14T09:29:12.829Z,6.65
2018-06-14T09:31:42.031Z,7.62
2018-06-14T09:34:11.063Z,6.28
2018-06-14T09:36:40.025Z,5.72
2018-06-14T09:39:09.972Z,6.80
2018-06-14T09:41:39.101Z,7.12
2018-06-14T09:44:08.176Z,6.97
2018-06-14T09:46:39.959Z,8.73
2018-06-14T09:49:10.459Z,6.42
2018-06-14T09:51:39.875Z,7.33
2018-06-14T10:00:53.619Z,4.80
2018-06-14T10:03:22.572Z,11.00
2018-06-14T10:05:51.716Z,4.83
2018-06-14T10:08:20.923Z,9.08
2018-06-14T10:10:49.890Z,4.00
2018-06-14T10:13:18.808Z,4.50
2018-06-14T10:15:48.032Z,6.97
2018-06-14T10:18:17.079Z,6.20
2018-06-14T10:20:46.008Z,6.85
2018-06-14T10:23:16.065Z,5.75
2018-06-14T10:25:45.001Z,4.40
2018-06-14T10:28:13.939Z,6.75
2018-06-14T10:30:42.904Z,7.30
2018-06-14T10:33:11.851Z,7.40
2018-06-14T10:35:40.832Z,5.90
2018-06-14T10:38:10.240Z,5.62
2018-06-14T10:40:39.219Z,7.33
2018-06-14T10:43:08.453Z,10.30
2018-06-14T10:45:38.117Z,12.63
2018-06-14T10:48:07.088Z,8.53
2018-06-14T10:50:36.006Z,7.80
2018-06-14T10:53:04.897Z,12.30
2018-06-14T10:55:33.902Z,11.18
2018-06-14T10:58:02.972Z,8.73
2018-06-14T11:00:32.275Z,9.08
2018-06-14T11:03:01.447Z,13.15
2018-06-14T11:05:30.504Z,25.97
2018-06-14T11:08:00.011Z,26.37
2018-06-14T11:10:29.036Z,21.25
2018-06-14T11:12:58.158Z,33.33
2018-06-14T11:15:27.886Z,32.23
2018-06-14T11:17:56.989Z,16.10
2018-06-14T11:20:26.115Z,15.75
2018-06-14T11:22:55.353Z,20.45
2018-06-14T11:25:24.304Z,15.13
2018-06-14T11:27:53.443Z,16.57
2018-06-14T11:30:22.846Z,14.28
2018-06-14T11:32:51.884Z,16.10
2018-06-14T11:35:20.872Z,20.80
2018-06-14T11:37:50.317Z,20.17
2018-06-14T11:40:19.452Z,21.53
2018-06-14T11:42:48.541Z,27.75
2018-06-14T11:45:18.258Z,19.27
2018-06-14T11:47:47.399Z,31.97
2018-06-14T11:50:16.483Z,17.07
2018-06-14T11:52:46.150Z,12.77
2018-06-14T11:55:15.126Z,22.80
2018-06-14T11:57:44.537Z,14.30
2018-06-14T12:00:15.080Z,11.83
2018-06-14T12:02:44.270Z,15.27
2018-06-14T12:05:13.387Z,14.60
2018-06-14T12:07:43.113Z,14.00
2018-06-14T12:10:12.279Z,24.33
2018-06-14T12:12:41.411Z,17.03
2018-06-14T12:15:10.687Z,14.20
2018-06-14T12:17:39.608Z,14.00
2018-06-14T12:20:08.648Z,10.43
2018-06-14T12:22:37.962Z,11.43
2018-06-14T12:25:06.954Z,13.00
2018-06-14T12:34:20.719Z,10.67
2018-06-14T12:36:49.902Z,13.57
2018-06-14T12:39:19.063Z,12.97
2018-06-14T12:41:48.426Z,8.97
2018-06-14T12:44:17.607Z,14.90
2018-06-14T12:46:46.553Z,11.45
2018-06-14T12:49:15.797Z,9.97
2018-06-14T12:51:44.781Z,12.30
2018-06-14T12:54:13.906Z,14.23
2018-06-14T12:56:43.408Z,12.27
2018-06-14T12:59:12.460Z,14.27
2018-06-14T13:01:41.569Z,23.40
2018-06-14T13:04:11.340Z,74.03
2018-06-14T13:06:40.661Z,28.83
2018-06-14T13:09:11.932Z,15.93
2018-06-14T13:11:41.224Z,13.43
2018-06-14T13:14:10.936Z,14.23
2018-06-14T13:16:40.216Z,12.60
2018-06-14T13:19:09.335Z,16.00
2018-06-14T13:21:38.543Z,13.67
2018-06-14T13:24:08.322Z,10.60
2018-06-14T13:26:37.250Z,15.37
2018-06-14T13:29:06.390Z,10.90
2018-06-14T13:31:35.502Z,13.03
2018-06-14T13:34:04.719Z,14.67
2018-06-14T13:36:33.891Z,16.10
2018-06-14T13:39:03.352Z,17.37
2018-06-14T13:41:33.195Z,16.03
2018-06-14T13:44:02.403Z,15.53
2018-06-14T13:46:31.995Z,11.90
2018-06-14T13:49:01.189Z,13.07
2018-06-14T13:51:30.362Z,16.10
2018-06-14T13:54:00.086Z,17.33
2018-06-14T13:56:35.534Z,15.40
2018-06-14T14:01:41.562Z,42.13
2018-06-14T14:04:17.328Z,14.90
2018-06-14T14:06:48.249Z,12.15
2018-06-14T14:09:17.971Z,11.50
2018-06-14T14:11:47.432Z,14.30
2018-06-14T14:14:17.000Z,33.05
2018-06-14T14:16:48.760Z,57.90
2018-06-14T14:19:17.937Z,30.77
2018-06-14T14:21:47.172Z,16.90
2018-06-14T14:24:16.448Z,15.48
2018-06-14T14:26:45.771Z,9.18
2018-06-14T14:29:14.905Z,11.35
2018-06-14T14:31:44.349Z,12.80
2018-06-14T14:34:13.955Z,12.85
2018-06-14T14:50:59.816Z,12.53
2018-06-14T14:53:30.008Z,16.60
2018-06-14T14:55:59.734Z,12.93
2018-06-14T14:58:31.569Z,13.18
2018-06-14T15:01:01.445Z,13.20
2018-06-14T15:03:31.326Z,13.10
2018-06-14T15:06:01.169Z,12.25
2018-06-14T15:08:31.327Z,15.90
2018-06-14T15:11:00.686Z,19.90
2018-06-14T15:13:30.195Z,13.53
2018-06-14T15:16:00.753Z,17.12
2018-06-14T15:18:30.304Z,15.55
2018-06-14T15:21:00.044Z,14.43
2018-06-14T15:23:31.536Z,17.02
2018-06-14T15:26:02.026Z,15.60
2018-06-14T15:28:32.417Z,15.00
2018-06-14T15:31:02.767Z,16.07
2018-06-14T15:33:33.724Z,14.33
2018-06-14T15:36:03.974Z,15.98
2018-06-14T15:40:03.205Z,15.65
2018-06-14T15:42:42.884Z,12.93
2018-06-14T15:47:56.784Z,17.23
2018-06-14T15:52:06.275Z,17.33
2018-06-14T15:54:36.571Z,18.55
2018-06-14T15:57:06.485Z,12.53
2018-06-14T15:59:36.439Z,16.35
2018-06-14T16:05:02.790Z,15.40
2018-06-14T16:07:32.600Z,15.40
2018-06-14T16:10:23.400Z,15.30
2018-06-14T16:12:53.011Z,27.62
2018-06-14T16:15:26.608Z,20.43
2018-06-14T16:17:56.214Z,15.43
2018-06-14T16:20:31.835Z,27.55
2018-06-14T16:23:01.690Z,21.45
2018-06-14T16:25:31.692Z,17.85
2018-06-14T16:28:01.236Z,30.50
2018-06-14T16:30:30.762Z,22.67
2018-06-14T16:33:01.624Z,16.13
2018-06-14T16:35:31.727Z,24.67
2018-06-14T16:38:02.395Z,21.87
2018-06-14T16:40:52.277Z,29.40
2018-06-14T16:43:24.829Z,37.93
2018-06-14T16:45:55.755Z,60.73
2018-06-14T16:48:27.954Z,17.62
2018-06-14T16:50:57.412Z,15.23
2018-06-14T16:53:27.346Z,21.52
2018-06-14T16:55:57.393Z,16.73
2018-06-14T16:58:26.699Z,17.07
2018-06-14T17:00:56.056Z,14.28
2018-06-14T17:03:25.524Z,14.80
2018-06-14T17:05:56.176Z,15.37
2018-06-14T17:08:25.535Z,13.40
2018-06-14T17:10:54.929Z,16.53
2018-06-14T17:13:24.279Z,16.60
2018-06-14T17:15:54.124Z,17.57
2018-06-14T17:18:24.081Z,19.03
2018-06-14T17:20:54.094Z,71.43
2018-06-14T17:23:24.251Z,39.57
2018-06-14T17:25:54.159Z,26.30
2018-06-14T17:28:24.950Z,19.93
2018-06-14T17:30:54.238Z,22.57
2018-06-14T17:33:23.950Z,17.37
2018-06-14T17:35:53.405Z,20.77
2018-06-14T17:38:26.449Z,23.07
2018-06-14T17:40:56.959Z,21.17
2018-06-14T17:43:26.479Z,21.23
2018-06-14T17:45:58.043Z,20.87
2018-06-14T17:48:28.013Z,17.20
2018-06-14T17:50:58.067Z,20.67
2018-06-14T17:53:28.231Z,18.60
2018-06-14T17:55:58.887Z,15.73
2018-06-14T17:58:29.610Z,19.00
2018-06-14T18:00:59.977Z,17.13
2018-06-14T18:03:30.770Z,17.77
2018-06-14T18:06:01.924Z,19.10
2018-06-14T18:08:31.238Z,29.20
2018-06-14T18:12:29.608Z,25.37
2018-06-14T18:14:59.232Z,19.13
2018-06-14T18:17:29.586Z,21.90
2018-06-14T18:20:00.807Z,22.23
2018-06-14T18:22:30.719Z,23.47
2018-06-14T18:25:00.163Z,20.37
2018-06-14T18:27:29.581Z,22.93
2018-06-14T18:29:59.021Z,17.67
2018-06-14T18:32:28.653Z,23.73
2018-06-14T18:34:58.059Z,16.07
2018-06-14T18:37:27.518Z,17.33
2018-06-14T18:39:58.263Z,12.00
2018-06-14T18:42:36.744Z,16.10
2018-06-14T18:45:06.826Z,17.47
2018-06-14T18:47:38.330Z,13.90
2018-06-14T18:50:16.656Z,17.97
2018-06-14T18:52:45.852Z,19.20
2018-06-14T18:55:15.620Z,20.67
2018-06-14T18:57:45.805Z,19.60
2018-06-14T19:00:15.672Z,18.07
2018-06-14T19:02:45.541Z,17.83
2018-06-14T19:05:15.030Z,21.70
2018-06-14T19:07:55.979Z,20.93
2018-06-14T19:10:25.419Z,21.50
2018-06-14T19:12:54.479Z,20.03
2018-06-14T19:15:24.250Z,22.00
2018-06-14T19:17:53.368Z,20.07
2018-06-14T19:20:32.029Z,15.70
2018-06-14T19:23:01.997Z,17.33
2018-06-14T19:25:38.798Z,14.30
2018-06-14T19:28:07.944Z,15.47
2018-06-14T19:30:37.104Z,14.80
2018-06-14T19:33:06.593Z,16.20
2018-06-14T19:35:36.041Z,16.27
2018-06-14T19:38:11.476Z,12.80
2018-06-14T19:40:40.801Z,12.27
2018-06-14T19:43:10.344Z,11.90
2018-06-14T19:45:39.971Z,16.53
2018-06-14T19:48:09.886Z,13.33
2018-06-14T19:50:40.635Z,15.97
2018-06-14T19:53:10.635Z,13.97
2018-06-14T19:55:39.918Z,18.33
2018-06-14T19:58:09.664Z,15.90
2018-06-14T20:00:39.367Z,12.90
2018-06-14T20:03:08.847Z,15.30
2018-06-14T20:05:42.015Z,16.00
2018-06-14T20:08:11.481Z,23.67
2018-06-14T20:10:42.488Z,23.00
2018-06-14T20:13:11.814Z,17.33
2018-06-14T20:22:49.666Z,17.87
2018-06-14T20:25:19.682Z,19.23
2018-06-14T20:27:50.620Z,21.80
2018-06-14T20:30:20.549Z,23.43
2018-06-14T20:32:51.512Z,21.97
2018-06-14T20:35:21.545Z,19.17
2018-06-14T20:37:52.495Z,19.23
2018-06-14T20:40:48.363Z,14.80
2018-06-14T20:43:19.867Z,11.93
2018-06-14T20:45:49.888Z,15.87
2018-06-14T20:51:20.165Z,15.00
2018-06-14T20:54:11.150Z,19.67
2018-06-14T20:56:42.828Z,15.63
2018-06-14T20:59:12.453Z,17.40
2018-06-14T21:01:42.486Z,14.73
2018-06-14T21:04:11.853Z,19.07
2018-06-14T21:06:41.024Z,17.43
2018-06-14T21:09:11.276Z,14.87
2018-06-14T21:11:40.856Z,17.57
2018-06-14T21:14:10.350Z,19.63
2018-06-14T21:16:40.164Z,20.03
2018-06-14T21:19:09.447Z,20.37
2018-06-14T21:21:38.631Z,21.03
2018-06-14T21:24:07.973Z,19.20
2018-06-14T21:26:39.873Z,18.60
2018-06-14T21:29:14.781Z,18.70
2018-06-14T21:31:44.578Z,18.47
2018-06-14T21:34:15.006Z,19.57
2018-06-14T21:36:52.923Z,24.57
2018-06-14T21:39:23.230Z,17.83
2018-06-14T21:41:52.881Z,18.43
2018-06-14T21:44:25.105Z,24.13
2018-06-14T21:46:54.785Z,18.37
2018-06-14T21:49:24.752Z,26.33
2018-06-14T21:54:46.083Z,18.23
2018-06-14T21:58:06.992Z,15.30
2018-06-14T22:06:30.059Z,15.67
2018-06-14T22:09:00.474Z,15.50
2018-06-14T22:11:30.821Z,20.67
2018-06-14T22:14:01.689Z,16.50
2018-06-14T22:16:32.823Z,18.07
2018-06-14T22:19:02.187Z,18.20
2018-06-14T22:21:31.488Z,21.13
2018-06-14T22:24:00.983Z,19.37
2018-06-14T22:26:34.176Z,19.60
2018-06-14T22:29:05.500Z,18.20
2018-06-14T22:31:34.982Z,23.50
2018-06-14T22:34:15.607Z,15.90
2018-06-14T22:36:45.273Z,18.00
2018-06-14T22:42:07.220Z,20.10
2018-06-14T22:44:36.757Z,21.47
2018-06-14T22:47:06.394Z,20.40
2018-06-14T22:49:36.226Z,19.43
2018-06-14T22:53:17.969Z,23.80
2018-06-14T22:55:47.509Z,21.90
2018-06-14T22:58:17.076Z,17.60
2018-06-14T23:01:53.540Z,19.77
2018-06-14T23:04:25.823Z,19.43
2018-06-14T23:06:56.211Z,20.50
2018-06-14T23:10:38.652Z,20.87
2018-06-14T23:13:09.055Z,17.70
2018-06-14T23:15:38.789Z,19.90
2018-06-14T23:18:08.195Z,20.20
2018-06-14T23:20:37.701Z,19.20
2018-06-14T23:23:07.432Z,21.23
2018-06-14T23:25:37.156Z,17.50
2018-06-14T23:28:06.605Z,20.03
2018-06-14T23:37:24.853Z,18.10
2018-06-14T23:39:54.814Z,13.17
2018-06-14T23:42:24.950Z,15.33
2018-06-14T23:44:55.977Z,16.13
2018-06-14T23:47:26.541Z,15.93
2018-06-14T23:49:56.783Z,13.13
2018-06-14T23:52:27.867Z,19.63
2018-06-14T23:54:57.429Z,14.70
2018-06-14T23:57:27.076Z,14.37
2018-06-14T23:59:56.520Z,13.33
